TimeMDT,TemperatureF,Dew PointF,Humidity,Sea Level PressureIn,VisibilityMPH,Wind Direction,Wind SpeedMPH,Gust SpeedMPH,PrecipitationIn,Events,Conditions,WindDirDegrees,DateUTC
12:15 AM,50.0,39.2,66,29.91,10.0,West,5.8,-,N/A,,Overcast,280,2013-04-07 06:15:00
12:35 AM,50.0,39.2,66,29.91,10.0,SW,4.6,-,N/A,,Overcast,230,2013-04-07 06:35:00
12:55 AM,48.2,39.2,71,29.91,10.0,SW,6.9,-,N/A,,Overcast,230,2013-04-07 06:55:00
1:15 AM,48.2,39.2,71,29.91,10.0,SW,4.6,-,N/A,,Overcast,220,2013-04-07 07:15:00
1:35 AM,48.2,39.2,71,29.91,10.0,Calm,Calm,-,0.02,,Overcast,0,2013-04-07 07:35:00
1:55 AM,46.4,39.2,76,29.90,8.0,SSE,3.5,-,0.03,,Overcast,160,2013-04-07 07:55:00
2:15 AM,46.4,39.2,76,29.89,10.0,East,5.8,-,0.01,,Overcast,90,2013-04-07 08:15:00
2:35 AM,46.4,39.2,76,29.89,10.0,East,6.9,-,0.02,,Overcast,100,2013-04-07 08:35:00
2:55 AM,46.4,39.2,76,29.87,10.0,East,8.1,-,0.02,,Overcast,90,2013-04-07 08:55:00
3:15 AM,46.4,39.2,76,29.86,10.0,ESE,8.1,-,N/A,,Overcast,110,2013-04-07 09:15:00
3:35 AM,46.4,39.2,76,29.85,10.0,East,6.9,-,N/A,,Overcast,90,2013-04-07 09:35:00
3:55 AM,46.4,39.2,76,29.84,10.0,ESE,9.2,-,N/A,,Overcast,110,2013-04-07 09:55:00
4:15 AM,46.4,39.2,76,29.83,10.0,ESE,6.9,-,N/A,,Overcast,110,2013-04-07 10:15:00
4:35 AM,46.4,39.2,76,29.82,10.0,ESE,8.1,-,N/A,,Overcast,110,2013-04-07 10:35:00
4:55 AM,46.4,39.2,76,29.83,10.0,SE,5.8,-,N/A,,Overcast,140,2013-04-07 10:55:00
5:15 AM,46.4,39.2,76,29.82,10.0,SE,8.1,-,N/A,,Overcast,130,2013-04-07 11:15:00
5:35 AM,46.4,39.2,76,29.81,10.0,SE,10.4,-,N/A,,Overcast,140,2013-04-07 11:35:00
5:55 AM,46.4,39.2,76,29.81,10.0,SSE,10.4,-,N/A,,Overcast,150,2013-04-07 11:55:00
6:15 AM,46.4,39.2,76,29.80,10.0,SSE,11.5,-,0.01,,Mostly Cloudy,150,2013-04-07 12:15:00
6:35 AM,46.4,39.2,76,29.79,10.0,SE,11.5,-,0.01,,Mostly Cloudy,140,2013-04-07 12:35:00
6:55 AM,44.6,37.4,76,29.78,10.0,SE,9.2,-,0.01,,Partly Cloudy,140,2013-04-07 12:55:00
7:15 AM,44.6,37.4,76,29.78,10.0,SSE,12.7,-,N/A,,Partly Cloudy,150,2013-04-07 13:15:00
7:35 AM,44.6,37.4,76,29.77,10.0,SE,11.5,-,N/A,,Mostly Cloudy,140,2013-04-07 13:35:00
7:55 AM,44.6,37.4,76,29.77,10.0,SE,13.8,18.4,N/A,,Overcast,130,2013-04-07 13:55:00
8:15 AM,46.4,37.4,71,29.78,10.0,SE,12.7,-,N/A,,Mostly Cloudy,140,2013-04-07 14:15:00
8:35 AM,46.4,37.4,71,29.77,10.0,SE,12.7,17.3,N/A,,Overcast,140,2013-04-07 14:35:00
8:55 AM,46.4,39.2,76,29.76,10.0,SSE,13.8,-,N/A,,Mostly Cloudy,150,2013-04-07 14:55:00
9:15 AM,48.2,39.2,71,29.75,10.0,SE,9.2,-,N/A,,Mostly Cloudy,140,2013-04-07 15:15:00
9:35 AM,51.8,39.2,62,29.75,10.0,SE,12.7,-,N/A,,Clear,140,2013-04-07 15:35:00
9:55 AM,53.6,39.2,58,29.73,10.0,ESE,13.8,21.9,N/A,,Clear,110,2013-04-07 15:55:00
10:15 AM,53.6,39.2,58,29.73,10.0,SSE,10.4,-,N/A,,Mostly Cloudy,150,2013-04-07 16:15:00
10:35 AM,57.2,35.6,44,29.73,10.0,WSW,19.6,26.5,N/A,,Mostly Cloudy,250,2013-04-07 16:35:00
10:55 AM,57.2,33.8,41,29.72,10.0,WSW,17.3,33.4,N/A,,Mostly Cloudy,250,2013-04-07 16:55:00
11:15 AM,57.2,35.6,44,29.73,10.0,WSW,24.2,36.8,N/A,,Mostly Cloudy,240,2013-04-07 17:15:00
11:35 AM,59.0,35.6,42,29.72,10.0,WSW,23.0,32.2,N/A,,Partly Cloudy,250,2013-04-07 17:35:00
11:55 AM,57.2,33.8,41,29.73,10.0,WSW,24.2,29.9,N/A,,Mostly Cloudy,250,2013-04-07 17:55:00
12:15 PM,55.4,33.8,44,29.74,10.0,West,34.5,44.9,N/A,,Overcast,270,2013-04-07 18:15:00
12:35 PM,53.6,35.6,51,29.73,10.0,West,13.8,23.0,0.01,,Overcast,280,2013-04-07 18:35:00
12:55 PM,55.4,33.8,44,29.75,8.0,West,23.0,34.5,0.01,,Mostly Cloudy,270,2013-04-07 18:55:00
1:15 PM,53.6,32.0,44,29.74,10.0,West,23.0,32.2,N/A,,Mostly Cloudy,280,2013-04-07 19:15:00
1:35 PM,55.4,33.8,44,29.73,10.0,WNW,21.9,33.4,N/A,,Partly Cloudy,300,2013-04-07 19:35:00
1:55 PM,57.2,33.8,41,29.72,10.0,WNW,20.7,24.2,N/A,,Clear,290,2013-04-07 19:55:00
2:15 PM,51.8,33.8,50,29.74,10.0,SW,27.6,34.5,0.01,,Mostly Cloudy,230,2013-04-07 20:15:00
2:35 PM,48.2,35.6,62,29.72,10.0,WSW,11.5,-,0.01,,Mostly Cloudy,240,2013-04-07 20:35:00
2:55 PM,53.6,37.4,54,29.73,10.0,SW,12.7,17.3,0.01,,Mostly Cloudy,230,2013-04-07 20:55:00
3:15 PM,53.6,35.6,51,29.72,10.0,WSW,11.5,18.4,N/A,,Scattered Clouds,240,2013-04-07 21:15:00
3:35 PM,55.4,35.6,47,29.71,10.0,WSW,12.7,19.6,N/A,,Mostly Cloudy,240,2013-04-07 21:35:00
3:55 PM,55.4,37.4,51,29.70,10.0,WSW,9.2,-,N/A,,Scattered Clouds,240,2013-04-07 21:55:00
4:15 PM,55.4,37.4,51,29.69,10.0,SW,9.2,-,N/A,,Scattered Clouds,230,2013-04-07 22:15:00
4:35 PM,57.2,35.6,44,29.67,10.0,WSW,5.8,-,N/A,,Mostly Cloudy,240,2013-04-07 22:35:00
4:55 PM,53.6,33.8,47,29.69,8.0,WSW,15.0,28.8,0.03,,Overcast,250,2013-04-07 22:55:00
5:15 PM,55.4,35.6,47,29.67,10.0,Calm,Calm,-,N/A,,Scattered Clouds,0,2013-04-07 23:15:00
5:35 PM,57.2,33.8,41,29.67,10.0,North,5.8,-,N/A,,Scattered Clouds,350,2013-04-07 23:35:00
5:55 PM,55.4,30.2,38,29.67,10.0,WNW,15.0,18.4,N/A,,Overcast,300,2013-04-07 23:55:00
6:15 PM,55.4,32.0,41,29.68,10.0,NNW,20.7,28.8,N/A,,Overcast,340,2013-04-08 00:15:00
6:35 PM,50.0,33.8,54,29.70,10.0,NNW,20.7,-,N/A,,Mostly Cloudy,340,2013-04-08 00:35:00
6:55 PM,50.0,33.8,54,29.69,10.0,North,12.7,-,N/A,,Scattered Clouds,360,2013-04-08 00:55:00
7:15 PM,50.0,33.8,54,29.70,10.0,North,16.1,19.6,N/A,,Scattered Clouds,360,2013-04-08 01:15:00
7:35 PM,48.2,32.0,54,29.69,10.0,North,15.0,-,N/A,,Partly Cloudy,10,2013-04-08 01:35:00
7:55 PM,48.2,32.0,54,29.69,10.0,NNE,10.4,-,N/A,,Partly Cloudy,20,2013-04-08 01:55:00
8:15 PM,46.4,32.0,57,29.69,10.0,North,9.2,-,N/A,,Clear,10,2013-04-08 02:15:00
8:35 PM,46.4,30.2,53,29.70,10.0,North,6.9,-,N/A,,Clear,350,2013-04-08 02:35:00
8:55 PM,46.4,30.2,53,29.71,10.0,NW,10.4,-,N/A,,Partly Cloudy,320,2013-04-08 02:55:00
9:15 PM,46.4,30.2,53,29.72,10.0,NW,13.8,-,N/A,,Scattered Clouds,320,2013-04-08 03:15:00
9:35 PM,46.4,30.2,53,29.73,10.0,NNW,9.2,-,N/A,,Mostly Cloudy,330,2013-04-08 03:35:00
9:55 PM,46.4,30.2,53,29.73,10.0,NNW,9.2,-,N/A,,Overcast,330,2013-04-08 03:55:00
10:15 PM,46.4,30.2,53,29.72,10.0,NW,9.2,-,N/A,,Overcast,320,2013-04-08 04:15:00
10:35 PM,44.6,30.2,57,29.73,10.0,NW,10.4,-,N/A,,Mostly Cloudy,320,2013-04-08 04:35:00
10:55 PM,44.6,30.2,57,29.73,10.0,NW,9.2,-,N/A,,Overcast,320,2013-04-08 04:55:00
11:15 PM,42.8,28.4,57,29.72,10.0,NW,10.4,-,N/A,,Scattered Clouds,320,2013-04-08 05:15:00
11:35 PM,42.8,28.4,57,29.72,10.0,NNW,11.5,-,N/A,,Clear,330,2013-04-08 05:35:00
11:55 PM,41.0,26.6,57,29.72,10.0,NNW,9.2,-,N/A,,Clear,330,2013-04-08 05:55:00